You are not logged in, Click here to log in
高雄國際機場KHH / RCKH 中華民國高雄市小港區中山四路2號
ICAO: RCKH Country: 中華民國高雄市小港區中山四路2號
Latitude: 22.5746 Longitude: 120.345
Total Arrivals: 486 Total Departures: 561
Latest Arrival: BR113B (ROAH-RCKH)Lun. Wang Latest Departure: KA457 (RCKH-VHHH)Ivan. Lee
Scenery:
METAR : RCKH 261230Z 34007KT 300V360 9999 FEW016 BKN080 25/20 Q1018 NOSIG RMK A3006

高雄國際機場KHH